sensor_id;sensor_type;location;lat;lon;timestamp;P1;durP1;ratioP1;P2;durP2;ratioP2
48052;SDS011;33824;51.600;5.718;2022-08-14T00:01:13;6.47;;;3.08;;
48052;SDS011;33824;51.600;5.718;2022-08-14T00:03:39;6.95;;;3.42;;
48052;SDS011;33824;51.600;5.718;2022-08-14T00:06:05;5.40;;;3.33;;
48052;SDS011;33824;51.600;5.718;2022-08-14T00:08:30;7.55;;;2.90;;
48052;SDS011;33824;51.600;5.718;2022-08-14T00:10:56;5.88;;;3.00;;
48052;SDS011;33824;51.600;5.718;2022-08-14T00:13:23;8.95;;;3.20;;
48052;SDS011;33824;51.600;5.718;2022-08-14T00:15:52;5.38;;;3.35;;
48052;SDS011;33824;51.600;5.718;2022-08-14T00:18:22;9.40;;;3.65;;
48052;SDS011;33824;51.600;5.718;2022-08-14T00:20:48;11.60;;;3.13;;
48052;SDS011;33824;51.600;5.718;2022-08-14T00:23:14;7.13;;;3.38;;
48052;SDS011;33824;51.600;5.718;2022-08-14T00:25:41;6.32;;;3.28;;
48052;SDS011;33824;51.600;5.718;2022-08-14T00:28:09;4.15;;;3.10;;
48052;SDS011;33824;51.600;5.718;2022-08-14T00:30:37;6.78;;;3.72;;
48052;SDS011;33824;51.600;5.718;2022-08-14T00:33:03;5.55;;;3.65;;
48052;SDS011;33824;51.600;5.718;2022-08-14T00:35:29;6.25;;;3.00;;
48052;SDS011;33824;51.600;5.718;2022-08-14T00:37:55;6.78;;;3.80;;
48052;SDS011;33824;51.600;5.718;2022-08-14T00:40:21;9.18;;;3.05;;
48052;SDS011;33824;51.600;5.718;2022-08-14T00:42:47;5.55;;;3.10;;
48052;SDS011;33824;51.600;5.718;2022-08-14T00:45:13;6.72;;;3.67;;
48052;SDS011;33824;51.600;5.718;2022-08-14T00:47:40;6.65;;;3.88;;
48052;SDS011;33824;51.600;5.718;2022-08-14T00:50:11;6.13;;;3.45;;
48052;SDS011;33824;51.600;5.718;2022-08-14T00:52:39;6.60;;;3.42;;
48052;SDS011;33824;51.600;5.718;2022-08-14T00:55:05;8.32;;;3.72;;
48052;SDS011;33824;51.600;5.718;2022-08-14T00:57:34;6.28;;;3.35;;
48052;SDS011;33824;51.600;5.718;2022-08-14T01:00:00;6.45;;;3.50;;
48052;SDS011;33824;51.600;5.718;2022-08-14T01:02:28;8.25;;;3.63;;
48052;SDS011;33824;51.600;5.718;2022-08-14T01:04:55;7.38;;;3.83;;
48052;SDS011;33824;51.600;5.718;2022-08-14T01:07:23;5.50;;;4.03;;
48052;SDS011;33824;51.600;5.718;2022-08-14T01:09:51;7.35;;;3.83;;
48052;SDS011;33824;51.600;5.718;2022-08-14T01:12:19;6.50;;;3.60;;
48052;SDS011;33824;51.600;5.718;2022-08-14T01:14:45;6.55;;;4.22;;
48052;SDS011;33824;51.600;5.718;2022-08-14T01:17:11;4.93;;;3.78;;
48052;SDS011;33824;51.600;5.718;2022-08-14T01:19:37;10.25;;;4.03;;
48052;SDS011;33824;51.600;5.718;2022-08-14T01:22:21;12.77;;;4.90;;
48052;SDS011;33824;51.600;5.718;2022-08-14T01:24:47;10.07;;;4.68;;
48052;SDS011;33824;51.600;5.718;2022-08-14T01:27:16;7.38;;;4.45;;
48052;SDS011;33824;51.600;5.718;2022-08-14T01:29:47;5.87;;;4.50;;
48052;SDS011;33824;51.600;5.718;2022-08-14T01:32:16;6.43;;;4.90;;
48052;SDS011;33824;51.600;5.718;2022-08-14T01:34:46;10.82;;;4.45;;
48052;SDS011;33824;51.600;5.718;2022-08-14T01:37:12;9.43;;;4.60;;
48052;SDS011;33824;51.600;5.718;2022-08-14T01:39:38;6.70;;;3.95;;
48052;SDS011;33824;51.600;5.718;2022-08-14T01:42:04;10.32;;;4.38;;
48052;SDS011;33824;51.600;5.718;2022-08-14T01:44:30;9.32;;;5.13;;
48052;SDS011;33824;51.600;5.718;2022-08-14T01:46:57;6.00;;;4.32;;
48052;SDS011;33824;51.600;5.718;2022-08-14T01:49:23;8.88;;;4.35;;
48052;SDS011;33824;51.600;5.718;2022-08-14T01:51:50;8.10;;;4.53;;
48052;SDS011;33824;51.600;5.718;2022-08-14T01:54:20;8.93;;;4.60;;
48052;SDS011;33824;51.600;5.718;2022-08-14T01:56:50;6.82;;;4.90;;
48052;SDS011;33824;51.600;5.718;2022-08-14T01:59:20;11.88;;;4.82;;
48052;SDS011;33824;51.600;5.718;2022-08-14T02:01:49;5.97;;;4.63;;
48052;SDS011;33824;51.600;5.718;2022-08-14T02:04:21;6.55;;;4.38;;
48052;SDS011;33824;51.600;5.718;2022-08-14T02:06:49;13.00;;;4.43;;
48052;SDS011;33824;51.600;5.718;2022-08-14T02:09:16;7.95;;;4.70;;
48052;SDS011;33824;51.600;5.718;2022-08-14T02:11:43;6.78;;;4.50;;
48052;SDS011;33824;51.600;5.718;2022-08-14T02:14:09;8.18;;;4.50;;
48052;SDS011;33824;51.600;5.718;2022-08-14T02:16:37;11.40;;;5.53;;
48052;SDS011;33824;51.600;5.718;2022-08-14T02:19:05;9.55;;;5.10;;
48052;SDS011;33824;51.600;5.718;2022-08-14T02:21:33;11.50;;;4.93;;
48052;SDS011;33824;51.600;5.718;2022-08-14T02:24:00;7.35;;;4.32;;
48052;SDS011;33824;51.600;5.718;2022-08-14T02:26:29;12.70;;;5.25;;
48052;SDS011;33824;51.600;5.718;2022-08-14T02:28:59;8.88;;;5.15;;
48052;SDS011;33824;51.600;5.718;2022-08-14T02:31:27;12.15;;;5.22;;
48052;SDS011;33824;51.600;5.718;2022-08-14T02:33:58;10.82;;;5.10;;
48052;SDS011;33824;51.600;5.718;2022-08-14T02:36:24;8.05;;;4.97;;
48052;SDS011;33824;51.600;5.718;2022-08-14T02:38:51;9.32;;;5.63;;
48052;SDS011;33824;51.600;5.718;2022-08-14T02:41:16;10.20;;;5.70;;
48052;SDS011;33824;51.600;5.718;2022-08-14T02:43:42;9.13;;;5.55;;
48052;SDS011;33824;51.600;5.718;2022-08-14T02:46:09;8.48;;;5.10;;
48052;SDS011;33824;51.600;5.718;2022-08-14T02:48:36;13.70;;;5.68;;
48052;SDS011;33824;51.600;5.718;2022-08-14T02:51:10;10.07;;;5.75;;
48052;SDS011;33824;51.600;5.718;2022-08-14T02:53:38;15.73;;;8.52;;
48052;SDS011;33824;51.600;5.718;2022-08-14T02:56:06;11.43;;;7.18;;
48052;SDS011;33824;51.600;5.718;2022-08-14T02:58:35;12.45;;;6.97;;
48052;SDS011;33824;51.600;5.718;2022-08-14T03:01:04;8.57;;;5.72;;
48052;SDS011;33824;51.600;5.718;2022-08-14T03:03:31;7.38;;;5.30;;
48052;SDS011;33824;51.600;5.718;2022-08-14T03:05:58;11.77;;;5.97;;
48052;SDS011;33824;51.600;5.718;2022-08-14T03:08:24;8.25;;;5.85;;
48052;SDS011;33824;51.600;5.718;2022-08-14T03:10:56;8.43;;;5.13;;
48052;SDS011;33824;51.600;5.718;2022-08-14T03:13:23;12.20;;;5.03;;
48052;SDS011;33824;51.600;5.718;2022-08-14T03:15:49;7.95;;;6.07;;
48052;SDS011;33824;51.600;5.718;2022-08-14T03:18:19;12.93;;;5.60;;
48052;SDS011;33824;51.600;5.718;2022-08-14T03:20:48;9.13;;;6.15;;
48052;SDS011;33824;51.600;5.718;2022-08-14T03:23:14;9.02;;;5.63;;
48052;SDS011;33824;51.600;5.718;2022-08-14T03:25:40;7.35;;;5.60;;
48052;SDS011;33824;51.600;5.718;2022-08-14T03:28:07;7.75;;;5.55;;
48052;SDS011;33824;51.600;5.718;2022-08-14T03:30:34;13.13;;;6.40;;
48052;SDS011;33824;51.600;5.718;2022-08-14T03:33:01;8.07;;;6.20;;
48052;SDS011;33824;51.600;5.718;2022-08-14T03:35:26;11.88;;;6.20;;
48052;SDS011;33824;51.600;5.718;2022-08-14T03:37:52;10.43;;;5.90;;
48052;SDS011;33824;51.600;5.718;2022-08-14T03:40:18;10.65;;;6.00;;
48052;SDS011;33824;51.600;5.718;2022-08-14T03:42:45;7.55;;;5.93;;
48052;SDS011;33824;51.600;5.718;2022-08-14T03:45:11;8.95;;;6.28;;
48052;SDS011;33824;51.600;5.718;2022-08-14T03:47:38;10.93;;;6.78;;
48052;SDS011;33824;51.600;5.718;2022-08-14T03:50:08;9.75;;;6.13;;
48052;SDS011;33824;51.600;5.718;2022-08-14T03:52:38;13.95;;;6.20;;
48052;SDS011;33824;51.600;5.718;2022-08-14T03:55:06;14.05;;;6.35;;
48052;SDS011;33824;51.600;5.718;2022-08-14T03:57:33;9.63;;;6.22;;
48052;SDS011;33824;51.600;5.718;2022-08-14T04:00:01;10.25;;;6.22;;
48052;SDS011;33824;51.600;5.718;2022-08-14T04:02:31;8.98;;;6.40;;
48052;SDS011;33824;51.600;5.718;2022-08-14T04:04:57;12.38;;;6.65;;
48052;SDS011;33824;51.600;5.718;2022-08-14T04:07:22;9.65;;;6.38;;
48052;SDS011;33824;51.600;5.718;2022-08-14T04:09:48;10.23;;;7.22;;
48052;SDS011;33824;51.600;5.718;2022-08-14T04:12:14;11.02;;;6.63;;
48052;SDS011;33824;51.600;5.718;2022-08-14T04:14:39;9.15;;;6.65;;
48052;SDS011;33824;51.600;5.718;2022-08-14T04:17:05;13.77;;;7.07;;
48052;SDS011;33824;51.600;5.718;2022-08-14T04:19:30;13.57;;;7.60;;
48052;SDS011;33824;51.600;5.718;2022-08-14T04:21:56;12.85;;;6.80;;
48052;SDS011;33824;51.600;5.718;2022-08-14T04:24:21;9.60;;;6.97;;
48052;SDS011;33824;51.600;5.718;2022-08-14T04:26:47;10.63;;;7.40;;
48052;SDS011;33824;51.600;5.718;2022-08-14T04:29:12;15.55;;;8.05;;
48052;SDS011;33824;51.600;5.718;2022-08-14T04:31:38;16.00;;;7.05;;
48052;SDS011;33824;51.600;5.718;2022-08-14T04:34:04;10.52;;;7.13;;
48052;SDS011;33824;51.600;5.718;2022-08-14T04:36:30;12.13;;;7.20;;
48052;SDS011;33824;51.600;5.718;2022-08-14T04:38:57;16.65;;;7.95;;
48052;SDS011;33824;51.600;5.718;2022-08-14T04:41:41;11.10;;;6.85;;
48052;SDS011;33824;51.600;5.718;2022-08-14T04:44:25;11.23;;;8.20;;
48052;SDS011;33824;51.600;5.718;2022-08-14T04:46:50;12.00;;;7.10;;
48052;SDS011;33824;51.600;5.718;2022-08-14T04:49:35;9.10;;;6.93;;
48052;SDS011;33824;51.600;5.718;2022-08-14T04:52:00;14.52;;;6.82;;
48052;SDS011;33824;51.600;5.718;2022-08-14T04:54:28;12.55;;;7.18;;
48052;SDS011;33824;51.600;5.718;2022-08-14T04:56:54;13.02;;;7.53;;
48052;SDS011;33824;51.600;5.718;2022-08-14T04:59:20;12.00;;;7.32;;
48052;SDS011;33824;51.600;5.718;2022-08-14T05:01:46;12.43;;;7.13;;
48052;SDS011;33824;51.600;5.718;2022-08-14T05:04:12;15.45;;;7.80;;
48052;SDS011;33824;51.600;5.718;2022-08-14T05:06:38;12.55;;;7.55;;
48052;SDS011;33824;51.600;5.718;2022-08-14T05:09:04;22.30;;;8.07;;
48052;SDS011;33824;51.600;5.718;2022-08-14T05:11:30;11.00;;;8.00;;
48052;SDS011;33824;51.600;5.718;2022-08-14T05:13:58;14.15;;;7.88;;
48052;SDS011;33824;51.600;5.718;2022-08-14T05:16:23;9.77;;;7.13;;
48052;SDS011;33824;51.600;5.718;2022-08-14T05:18:53;11.07;;;8.07;;
48052;SDS011;33824;51.600;5.718;2022-08-14T05:21:19;16.40;;;7.57;;
48052;SDS011;33824;51.600;5.718;2022-08-14T05:23:45;13.00;;;7.70;;
48052;SDS011;33824;51.600;5.718;2022-08-14T05:26:11;11.30;;;7.85;;
48052;SDS011;33824;51.600;5.718;2022-08-14T05:28:42;13.32;;;8.23;;
48052;SDS011;33824;51.600;5.718;2022-08-14T05:31:09;14.05;;;7.90;;
48052;SDS011;33824;51.600;5.718;2022-08-14T05:33:35;10.90;;;7.45;;
48052;SDS011;33824;51.600;5.718;2022-08-14T05:36:05;12.75;;;7.97;;
48052;SDS011;33824;51.600;5.718;2022-08-14T05:38:34;13.63;;;7.60;;
48052;SDS011;33824;51.600;5.718;2022-08-14T05:41:03;11.73;;;7.57;;
48052;SDS011;33824;51.600;5.718;2022-08-14T05:43:30;10.13;;;8.18;;
48052;SDS011;33824;51.600;5.718;2022-08-14T05:45:57;10.48;;;7.35;;
48052;SDS011;33824;51.600;5.718;2022-08-14T05:48:24;12.25;;;7.80;;
48052;SDS011;33824;51.600;5.718;2022-08-14T05:50:50;9.05;;;7.53;;
48052;SDS011;33824;51.600;5.718;2022-08-14T05:53:16;13.45;;;7.95;;
48052;SDS011;33824;51.600;5.718;2022-08-14T05:55:42;10.23;;;7.93;;
48052;SDS011;33824;51.600;5.718;2022-08-14T05:58:08;12.10;;;8.23;;
48052;SDS011;33824;51.600;5.718;2022-08-14T06:00:37;16.33;;;7.93;;
48052;SDS011;33824;51.600;5.718;2022-08-14T06:03:11;12.60;;;8.55;;
48052;SDS011;33824;51.600;5.718;2022-08-14T06:05:40;10.38;;;7.45;;
48052;SDS011;33824;51.600;5.718;2022-08-14T06:08:16;11.68;;;7.68;;
48052;SDS011;33824;51.600;5.718;2022-08-14T06:10:45;10.65;;;7.40;;
48052;SDS011;33824;51.600;5.718;2022-08-14T06:13:11;10.18;;;7.65;;
48052;SDS011;33824;51.600;5.718;2022-08-14T06:15:38;11.07;;;7.45;;
48052;SDS011;33824;51.600;5.718;2022-08-14T06:18:03;14.90;;;8.00;;
48052;SDS011;33824;51.600;5.718;2022-08-14T06:20:29;12.02;;;8.25;;
48052;SDS011;33824;51.600;5.718;2022-08-14T06:22:55;12.18;;;7.65;;
48052;SDS011;33824;51.600;5.718;2022-08-14T06:25:21;11.38;;;7.82;;
48052;SDS011;33824;51.600;5.718;2022-08-14T06:27:47;16.63;;;7.93;;
48052;SDS011;33824;51.600;5.718;2022-08-14T06:30:20;13.80;;;8.77;;
48052;SDS011;33824;51.600;5.718;2022-08-14T06:32:48;13.52;;;7.38;;
48052;SDS011;33824;51.600;5.718;2022-08-14T06:35:14;10.45;;;7.53;;
48052;SDS011;33824;51.600;5.718;2022-08-14T06:37:43;12.93;;;8.20;;
48052;SDS011;33824;51.600;5.718;2022-08-14T06:40:11;9.95;;;7.57;;
48052;SDS011;33824;51.600;5.718;2022-08-14T06:42:41;12.32;;;8.00;;
48052;SDS011;33824;51.600;5.718;2022-08-14T06:45:07;14.13;;;7.50;;
48052;SDS011;33824;51.600;5.718;2022-08-14T06:47:37;11.35;;;7.57;;
48052;SDS011;33824;51.600;5.718;2022-08-14T06:50:08;10.73;;;8.57;;
48052;SDS011;33824;51.600;5.718;2022-08-14T06:52:36;13.82;;;7.57;;
48052;SDS011;33824;51.600;5.718;2022-08-14T06:55:02;11.73;;;7.53;;
48052;SDS011;33824;51.600;5.718;2022-08-14T06:57:39;8.35;;;7.43;;
48052;SDS011;33824;51.600;5.718;2022-08-14T07:00:08;10.23;;;7.32;;
48052;SDS011;33824;51.600;5.718;2022-08-14T07:02:36;10.57;;;7.57;;
48052;SDS011;33824;51.600;5.718;2022-08-14T07:05:21;14.85;;;7.03;;
48052;SDS011;33824;51.600;5.718;2022-08-14T07:08:10;7.97;;;6.47;;
48052;SDS011;33824;51.600;5.718;2022-08-14T07:10:38;9.23;;;6.90;;
48052;SDS011;33824;51.600;5.718;2022-08-14T07:13:04;9.20;;;6.45;;
48052;SDS011;33824;51.600;5.718;2022-08-14T07:15:30;9.27;;;6.60;;
48052;SDS011;33824;51.600;5.718;2022-08-14T07:17:57;8.93;;;6.45;;
48052;SDS011;33824;51.600;5.718;2022-08-14T07:20:22;7.40;;;5.60;;
48052;SDS011;33824;51.600;5.718;2022-08-14T07:22:48;9.43;;;6.15;;
48052;SDS011;33824;51.600;5.718;2022-08-14T07:25:14;8.93;;;5.88;;
48052;SDS011;33824;51.600;5.718;2022-08-14T07:27:40;8.52;;;5.60;;
48052;SDS011;33824;51.600;5.718;2022-08-14T07:30:06;10.60;;;6.95;;
48052;SDS011;33824;51.600;5.718;2022-08-14T07:32:33;9.73;;;6.18;;
48052;SDS011;33824;51.600;5.718;2022-08-14T07:34:59;15.18;;;5.80;;
48052;SDS011;33824;51.600;5.718;2022-08-14T07:37:24;10.95;;;6.80;;
48052;SDS011;33824;51.600;5.718;2022-08-14T07:39:50;7.07;;;5.30;;
48052;SDS011;33824;51.600;5.718;2022-08-14T07:42:15;17.17;;;5.85;;
48052;SDS011;33824;51.600;5.718;2022-08-14T07:44:41;7.55;;;6.20;;
48052;SDS011;33824;51.600;5.718;2022-08-14T07:47:07;6.80;;;5.50;;
48052;SDS011;33824;51.600;5.718;2022-08-14T07:49:32;9.25;;;6.25;;
48052;SDS011;33824;51.600;5.718;2022-08-14T07:51:59;7.68;;;6.05;;
48052;SDS011;33824;51.600;5.718;2022-08-14T07:54:26;7.40;;;5.35;;
48052;SDS011;33824;51.600;5.718;2022-08-14T07:56:52;10.00;;;6.18;;
48052;SDS011;33824;51.600;5.718;2022-08-14T07:59:17;15.70;;;6.07;;
48052;SDS011;33824;51.600;5.718;2022-08-14T08:01:46;6.35;;;5.60;;
48052;SDS011;33824;51.600;5.718;2022-08-14T08:04:12;7.93;;;5.40;;
48052;SDS011;33824;51.600;5.718;2022-08-14T08:06:38;8.60;;;5.90;;
48052;SDS011;33824;51.600;5.718;2022-08-14T08:09:04;9.10;;;5.75;;
48052;SDS011;33824;51.600;5.718;2022-08-14T08:11:34;8.43;;;5.68;;
48052;SDS011;33824;51.600;5.718;2022-08-14T08:14:04;8.73;;;6.05;;
48052;SDS011;33824;51.600;5.718;2022-08-14T08:16:32;7.55;;;5.22;;
48052;SDS011;33824;51.600;5.718;2022-08-14T08:18:58;6.85;;;5.22;;
48052;SDS011;33824;51.600;5.718;2022-08-14T08:21:27;11.50;;;5.88;;
48052;SDS011;33824;51.600;5.718;2022-08-14T08:23:53;11.40;;;5.20;;
48052;SDS011;33824;51.600;5.718;2022-08-14T08:26:18;10.27;;;4.93;;
48052;SDS011;33824;51.600;5.718;2022-08-14T08:28:53;9.57;;;5.60;;
48052;SDS011;33824;51.600;5.718;2022-08-14T08:31:20;6.55;;;5.22;;
48052;SDS011;33824;51.600;5.718;2022-08-14T08:33:49;6.85;;;4.50;;
48052;SDS011;33824;51.600;5.718;2022-08-14T08:36:17;6.55;;;4.70;;
48052;SDS011;33824;51.600;5.718;2022-08-14T08:38:43;8.82;;;5.05;;
48052;SDS011;33824;51.600;5.718;2022-08-14T08:41:10;6.25;;;4.30;;
48052;SDS011;33824;51.600;5.718;2022-08-14T08:43:39;8.50;;;4.90;;
48052;SDS011;33824;51.600;5.718;2022-08-14T08:46:06;8.68;;;5.22;;
48052;SDS011;33824;51.600;5.718;2022-08-14T08:51:18;10.52;;;4.88;;
48052;SDS011;33824;51.600;5.718;2022-08-14T08:53:54;5.90;;;4.47;;
48052;SDS011;33824;51.600;5.718;2022-08-14T08:56:40;5.53;;;4.75;;
48052;SDS011;33824;51.600;5.718;2022-08-14T08:59:18;7.32;;;4.90;;
48052;SDS011;33824;51.600;5.718;2022-08-14T09:01:46;9.25;;;5.47;;
48052;SDS011;33824;51.600;5.718;2022-08-14T09:04:13;6.65;;;4.85;;
48052;SDS011;33824;51.600;5.718;2022-08-14T09:06:42;8.27;;;5.03;;
48052;SDS011;33824;51.600;5.718;2022-08-14T09:09:25;11.87;;;5.10;;
48052;SDS011;33824;51.600;5.718;2022-08-14T09:11:53;7.95;;;5.00;;
48052;SDS011;33824;51.600;5.718;2022-08-14T09:14:20;6.00;;;5.15;;
48052;SDS011;33824;51.600;5.718;2022-08-14T09:16:50;7.45;;;5.68;;
48052;SDS011;33824;51.600;5.718;2022-08-14T09:19:16;12.52;;;6.03;;
48052;SDS011;33824;51.600;5.718;2022-08-14T09:21:42;6.93;;;4.90;;
48052;SDS011;33824;51.600;5.718;2022-08-14T09:24:11;7.32;;;4.90;;
48052;SDS011;33824;51.600;5.718;2022-08-14T09:26:37;6.78;;;5.15;;
48052;SDS011;33824;51.600;5.718;2022-08-14T09:29:04;7.10;;;4.53;;
48052;SDS011;33824;51.600;5.718;2022-08-14T09:31:32;11.15;;;4.60;;
48052;SDS011;33824;51.600;5.718;2022-08-14T09:34:03;7.85;;;5.00;;
48052;SDS011;33824;51.600;5.718;2022-08-14T09:39:40;6.25;;;4.45;;
48052;SDS011;33824;51.600;5.718;2022-08-14T09:45:08;5.00;;;4.47;;
48052;SDS011;33824;51.600;5.718;2022-08-14T09:47:40;6.00;;;4.30;;
48052;SDS011;33824;51.600;5.718;2022-08-14T09:50:20;7.72;;;4.70;;
48052;SDS011;33824;51.600;5.718;2022-08-14T09:55:27;7.43;;;4.70;;
48052;SDS011;33824;51.600;5.718;2022-08-14T09:58:17;8.50;;;4.70;;
48052;SDS011;33824;51.600;5.718;2022-08-14T10:00:44;6.47;;;4.15;;
48052;SDS011;33824;51.600;5.718;2022-08-14T10:03:23;8.77;;;4.88;;
48052;SDS011;33824;51.600;5.718;2022-08-14T10:06:02;9.02;;;4.85;;
48052;SDS011;33824;51.600;5.718;2022-08-14T10:08:38;6.68;;;3.90;;
48052;SDS011;33824;51.600;5.718;2022-08-14T10:13:41;4.47;;;3.65;;
48052;SDS011;33824;51.600;5.718;2022-08-14T10:16:07;5.68;;;3.95;;
48052;SDS011;33824;51.600;5.718;2022-08-14T10:18:33;4.47;;;4.07;;
48052;SDS011;33824;51.600;5.718;2022-08-14T10:20:59;6.82;;;4.00;;
48052;SDS011;33824;51.600;5.718;2022-08-14T10:23:26;5.13;;;3.42;;
48052;SDS011;33824;51.600;5.718;2022-08-14T10:25:57;5.63;;;4.25;;
48052;SDS011;33824;51.600;5.718;2022-08-14T10:28:41;8.90;;;4.85;;
48052;SDS011;33824;51.600;5.718;2022-08-14T10:31:15;6.18;;;3.92;;
48052;SDS011;33824;51.600;5.718;2022-08-14T10:33:41;8.43;;;3.33;;
48052;SDS011;33824;51.600;5.718;2022-08-14T10:36:07;6.05;;;3.70;;
48052;SDS011;33824;51.600;5.718;2022-08-14T10:38:33;4.28;;;3.15;;
48052;SDS011;33824;51.600;5.718;2022-08-14T10:41:13;4.43;;;3.10;;
48052;SDS011;33824;51.600;5.718;2022-08-14T10:43:41;6.03;;;3.50;;
48052;SDS011;33824;51.600;5.718;2022-08-14T10:46:12;8.20;;;3.42;;
48052;SDS011;33824;51.600;5.718;2022-08-14T10:48:39;6.95;;;4.05;;
48052;SDS011;33824;51.600;5.718;2022-08-14T10:51:04;5.95;;;3.70;;
48052;SDS011;33824;51.600;5.718;2022-08-14T10:53:31;3.97;;;3.25;;
48052;SDS011;33824;51.600;5.718;2022-08-14T10:55:59;4.88;;;2.60;;
48052;SDS011;33824;51.600;5.718;2022-08-14T10:58:28;9.40;;;3.88;;
48052;SDS011;33824;51.600;5.718;2022-08-14T11:00:56;9.95;;;2.72;;
48052;SDS011;33824;51.600;5.718;2022-08-14T11:03:24;4.20;;;2.80;;
48052;SDS011;33824;51.600;5.718;2022-08-14T11:06:10;4.45;;;2.63;;
48052;SDS011;33824;51.600;5.718;2022-08-14T11:08:38;3.60;;;2.60;;
48052;SDS011;33824;51.600;5.718;2022-08-14T11:11:04;8.75;;;3.55;;
48052;SDS011;33824;51.600;5.718;2022-08-14T11:13:31;3.50;;;2.70;;
48052;SDS011;33824;51.600;5.718;2022-08-14T11:15:57;3.97;;;2.90;;
48052;SDS011;33824;51.600;5.718;2022-08-14T11:18:28;3.95;;;2.92;;
48052;SDS011;33824;51.600;5.718;2022-08-14T11:20:55;9.00;;;3.72;;
48052;SDS011;33824;51.600;5.718;2022-08-14T11:23:27;7.07;;;2.90;;
48052;SDS011;33824;51.600;5.718;2022-08-14T11:25:57;5.22;;;2.97;;
48052;SDS011;33824;51.600;5.718;2022-08-14T11:28:24;4.78;;;2.78;;
48052;SDS011;33824;51.600;5.718;2022-08-14T11:30:51;3.22;;;2.17;;
48052;SDS011;33824;51.600;5.718;2022-08-14T11:33:29;8.43;;;2.70;;
48052;SDS011;33824;51.600;5.718;2022-08-14T11:35:57;4.15;;;2.92;;
48052;SDS011;33824;51.600;5.718;2022-08-14T11:38:26;3.35;;;2.47;;
48052;SDS011;33824;51.600;5.718;2022-08-14T11:40:54;5.55;;;2.58;;
48052;SDS011;33824;51.600;5.718;2022-08-14T11:43:21;5.25;;;2.50;;
48052;SDS011;33824;51.600;5.718;2022-08-14T11:45:48;4.25;;;2.60;;
48052;SDS011;33824;51.600;5.718;2022-08-14T11:48:18;4.72;;;3.10;;
48052;SDS011;33824;51.600;5.718;2022-08-14T11:50:46;4.32;;;2.60;;
48052;SDS011;33824;51.600;5.718;2022-08-14T11:56:01;2.88;;;2.17;;
48052;SDS011;33824;51.600;5.718;2022-08-14T11:58:30;3.47;;;2.50;;
48052;SDS011;33824;51.600;5.718;2022-08-14T12:00:58;4.00;;;2.78;;
48052;SDS011;33824;51.600;5.718;2022-08-14T12:03:45;4.82;;;2.80;;
48052;SDS011;33824;51.600;5.718;2022-08-14T12:06:12;6.10;;;2.45;;
48052;SDS011;33824;51.600;5.718;2022-08-14T12:08:40;3.42;;;2.47;;
48052;SDS011;33824;51.600;5.718;2022-08-14T12:11:08;6.03;;;2.53;;
48052;SDS011;33824;51.600;5.718;2022-08-14T12:13:37;3.22;;;2.17;;
48052;SDS011;33824;51.600;5.718;2022-08-14T12:16:10;6.22;;;2.20;;
48052;SDS011;33824;51.600;5.718;2022-08-14T12:18:38;6.50;;;3.05;;
48052;SDS011;33824;51.600;5.718;2022-08-14T12:21:16;11.73;;;2.80;;
48052;SDS011;33824;51.600;5.718;2022-08-14T12:23:44;4.57;;;2.58;;
48052;SDS011;33824;51.600;5.718;2022-08-14T12:26:27;3.28;;;2.35;;
48052;SDS011;33824;51.600;5.718;2022-08-14T12:29:07;4.45;;;2.60;;
48052;SDS011;33824;51.600;5.718;2022-08-14T12:31:39;5.45;;;2.55;;
48052;SDS011;33824;51.600;5.718;2022-08-14T12:34:08;5.13;;;2.80;;
48052;SDS011;33824;51.600;5.718;2022-08-14T12:36:37;3.20;;;2.65;;
48052;SDS011;33824;51.600;5.718;2022-08-14T12:39:04;6.43;;;2.80;;
48052;SDS011;33824;51.600;5.718;2022-08-14T12:41:47;5.32;;;2.92;;
48052;SDS011;33824;51.600;5.718;2022-08-14T12:44:16;3.20;;;2.45;;
48052;SDS011;33824;51.600;5.718;2022-08-14T12:47:00;4.65;;;2.70;;
48052;SDS011;33824;51.600;5.718;2022-08-14T12:49:50;5.55;;;2.22;;
48052;SDS011;33824;51.600;5.718;2022-08-14T12:52:25;4.35;;;2.50;;
48052;SDS011;33824;51.600;5.718;2022-08-14T12:55:14;8.57;;;2.80;;
48052;SDS011;33824;51.600;5.718;2022-08-14T12:57:43;3.10;;;2.80;;
48052;SDS011;33824;51.600;5.718;2022-08-14T13:00:16;6.28;;;2.85;;
48052;SDS011;33824;51.600;5.718;2022-08-14T13:02:45;4.47;;;2.45;;
48052;SDS011;33824;51.600;5.718;2022-08-14T13:05:14;4.80;;;2.40;;
48052;SDS011;33824;51.600;5.718;2022-08-14T13:07:41;6.28;;;2.75;;
48052;SDS011;33824;51.600;5.718;2022-08-14T13:10:11;4.80;;;2.55;;
48052;SDS011;33824;51.600;5.718;2022-08-14T13:12:40;6.28;;;2.92;;
48052;SDS011;33824;51.600;5.718;2022-08-14T13:15:08;4.82;;;2.63;;
48052;SDS011;33824;51.600;5.718;2022-08-14T13:17:42;3.30;;;2.63;;
48052;SDS011;33824;51.600;5.718;2022-08-14T13:20:08;6.40;;;2.88;;
48052;SDS011;33824;51.600;5.718;2022-08-14T13:22:36;9.00;;;3.00;;
48052;SDS011;33824;51.600;5.718;2022-08-14T13:25:06;3.42;;;2.40;;
48052;SDS011;33824;51.600;5.718;2022-08-14T13:27:32;3.30;;;2.60;;
48052;SDS011;33824;51.600;5.718;2022-08-14T13:30:00;5.07;;;2.75;;
48052;SDS011;33824;51.600;5.718;2022-08-14T13:32:29;3.53;;;2.45;;
48052;SDS011;33824;51.600;5.718;2022-08-14T13:34:56;3.95;;;2.65;;
48052;SDS011;33824;51.600;5.718;2022-08-14T13:37:23;3.85;;;2.63;;
48052;SDS011;33824;51.600;5.718;2022-08-14T13:39:50;2.95;;;2.60;;
48052;SDS011;33824;51.600;5.718;2022-08-14T13:42:18;6.18;;;2.80;;
48052;SDS011;33824;51.600;5.718;2022-08-14T13:44:47;4.57;;;2.50;;
48052;SDS011;33824;51.600;5.718;2022-08-14T13:47:15;3.25;;;2.50;;
48052;SDS011;33824;51.600;5.718;2022-08-14T13:49:47;4.78;;;2.97;;
48052;SDS011;33824;51.600;5.718;2022-08-14T13:52:15;4.35;;;2.55;;
48052;SDS011;33824;51.600;5.718;2022-08-14T13:54:44;3.67;;;2.53;;
48052;SDS011;33824;51.600;5.718;2022-08-14T13:57:11;3.25;;;2.50;;
48052;SDS011;33824;51.600;5.718;2022-08-14T13:59:39;2.45;;;2.25;;
48052;SDS011;33824;51.600;5.718;2022-08-14T14:02:08;2.75;;;2.28;;
48052;SDS011;33824;51.600;5.718;2022-08-14T14:04:38;5.72;;;2.80;;
48052;SDS011;33824;51.600;5.718;2022-08-14T14:07:05;2.65;;;2.05;;
48052;SDS011;33824;51.600;5.718;2022-08-14T14:09:36;4.80;;;2.45;;
48052;SDS011;33824;51.600;5.718;2022-08-14T14:12:05;4.00;;;2.40;;
48052;SDS011;33824;51.600;5.718;2022-08-14T14:14:33;2.90;;;2.33;;
48052;SDS011;33824;51.600;5.718;2022-08-14T14:17:09;2.30;;;2.10;;
48052;SDS011;33824;51.600;5.718;2022-08-14T14:22:14;3.65;;;2.30;;
48052;SDS011;33824;51.600;5.718;2022-08-14T14:24:40;3.95;;;2.35;;
48052;SDS011;33824;51.600;5.718;2022-08-14T14:27:06;3.65;;;2.75;;
48052;SDS011;33824;51.600;5.718;2022-08-14T14:29:33;3.22;;;2.67;;
48052;SDS011;33824;51.600;5.718;2022-08-14T14:32:01;3.58;;;2.40;;
48052;SDS011;33824;51.600;5.718;2022-08-14T14:34:28;4.15;;;2.25;;
48052;SDS011;33824;51.600;5.718;2022-08-14T14:36:58;3.22;;;2.28;;
48052;SDS011;33824;51.600;5.718;2022-08-14T14:39:29;2.65;;;2.33;;
48052;SDS011;33824;51.600;5.718;2022-08-14T14:41:57;2.35;;;2.05;;
48052;SDS011;33824;51.600;5.718;2022-08-14T14:44:25;2.80;;;1.90;;
48052;SDS011;33824;51.600;5.718;2022-08-14T14:46:56;4.85;;;2.72;;
48052;SDS011;33824;51.600;5.718;2022-08-14T14:49:22;2.90;;;2.05;;
48052;SDS011;33824;51.600;5.718;2022-08-14T14:51:49;2.50;;;2.17;;
48052;SDS011;33824;51.600;5.718;2022-08-14T14:54:15;4.78;;;2.47;;
48052;SDS011;33824;51.600;5.718;2022-08-14T14:56:42;3.58;;;2.35;;
48052;SDS011;33824;51.600;5.718;2022-08-14T14:59:10;3.28;;;2.25;;
48052;SDS011;33824;51.600;5.718;2022-08-14T15:01:37;3.00;;;2.58;;
48052;SDS011;33824;51.600;5.718;2022-08-14T15:04:03;3.10;;;2.10;;
48052;SDS011;33824;51.600;5.718;2022-08-14T15:06:32;5.32;;;2.22;;
48052;SDS011;33824;51.600;5.718;2022-08-14T15:08:58;10.35;;;3.05;;
48052;SDS011;33824;51.600;5.718;2022-08-14T15:11:24;3.95;;;2.38;;